sensor_id;sensor_type;location;lat;lon;timestamp;temperature;humidity
9167;DHT22;4618;48.818;9.088;2022-12-20T00:01:23;4.40;99.90
9167;DHT22;4618;48.818;9.088;2022-12-20T00:03:50;4.50;34.00
9167;DHT22;4618;48.818;9.088;2022-12-20T00:06:17;4.60;1.00
9167;DHT22;4618;48.818;9.088;2022-12-20T00:08:43;4.50;1.00
9167;DHT22;4618;48.818;9.088;2022-12-20T00:11:10;4.40;1.00
9167;DHT22;4618;48.818;9.088;2022-12-20T00:13:36;4.30;1.00
9167;DHT22;4618;48.818;9.088;2022-12-20T00:16:11;4.20;1.00
9167;DHT22;4618;48.818;9.088;2022-12-20T00:18:38;4.10;1.00
9167;DHT22;4618;48.818;9.088;2022-12-20T00:21:06;4.00;99.90
9167;DHT22;4618;48.818;9.088;2022-12-20T00:23:33;4.00;99.90
9167;DHT22;4618;48.818;9.088;2022-12-20T00:26:07;4.00;99.90
9167;DHT22;4618;48.818;9.088;2022-12-20T00:28:34;3.90;99.90
9167;DHT22;4618;48.818;9.088;2022-12-20T00:31:01;3.90;99.90
9167;DHT22;4618;48.818;9.088;2022-12-20T00:33:27;3.90;1.00
9167;DHT22;4618;48.818;9.088;2022-12-20T00:35:56;4.10;1.00
9167;DHT22;4618;48.818;9.088;2022-12-20T00:38:23;4.40;1.00
9167;DHT22;4618;48.818;9.088;2022-12-20T00:41:20;4.70;99.90
9167;DHT22;4618;48.818;9.088;2022-12-20T00:43:46;5.00;1.00
9167;DHT22;4618;48.818;9.088;2022-12-20T00:46:13;5.20;1.00
9167;DHT22;4618;48.818;9.088;2022-12-20T00:48:39;5.40;1.00
9167;DHT22;4618;48.818;9.088;2022-12-20T00:51:07;5.30;1.00
9167;DHT22;4618;48.818;9.088;2022-12-20T00:53:34;5.10;1.00
9167;DHT22;4618;48.818;9.088;2022-12-20T00:56:00;4.90;1.00
9167;DHT22;4618;48.818;9.088;2022-12-20T00:58:26;4.80;29.30
9167;DHT22;4618;48.818;9.088;2022-12-20T01:00:52;4.80;99.90
9167;DHT22;4618;48.818;9.088;2022-12-20T01:03:18;4.60;99.90
9167;DHT22;4618;48.818;9.088;2022-12-20T01:05:55;4.60;99.90
9167;DHT22;4618;48.818;9.088;2022-12-20T01:08:21;4.50;1.00
9167;DHT22;4618;48.818;9.088;2022-12-20T01:11:01;4.40;1.00
9167;DHT22;4618;48.818;9.088;2022-12-20T01:13:28;4.30;1.00
9167;DHT22;4618;48.818;9.088;2022-12-20T01:15:53;4.20;80.60
9167;DHT22;4618;48.818;9.088;2022-12-20T01:18:19;4.40;1.00
9167;DHT22;4618;48.818;9.088;2022-12-20T01:20:45;4.30;1.00
9167;DHT22;4618;48.818;9.088;2022-12-20T01:23:10;4.30;87.80
9167;DHT22;4618;48.818;9.088;2022-12-20T01:25:36;4.20;18.70
9167;DHT22;4618;48.818;9.088;2022-12-20T01:28:01;4.10;99.90
9167;DHT22;4618;48.818;9.088;2022-12-20T01:30:27;4.20;99.90
9167;DHT22;4618;48.818;9.088;2022-12-20T01:32:53;4.00;99.90
9167;DHT22;4618;48.818;9.088;2022-12-20T01:35:18;3.90;99.90
9167;DHT22;4618;48.818;9.088;2022-12-20T01:37:44;3.90;99.90
9167;DHT22;4618;48.818;9.088;2022-12-20T01:40:10;3.90;99.90
9167;DHT22;4618;48.818;9.088;2022-12-20T01:42:36;3.90;99.90
9167;DHT22;4618;48.818;9.088;2022-12-20T01:45:06;3.80;99.90
9167;DHT22;4618;48.818;9.088;2022-12-20T01:47:33;3.80;1.00
9167;DHT22;4618;48.818;9.088;2022-12-20T01:50:02;3.90;1.00
9167;DHT22;4618;48.818;9.088;2022-12-20T01:52:36;3.90;99.90
9167;DHT22;4618;48.818;9.088;2022-12-20T01:55:10;3.90;1.00
9167;DHT22;4618;48.818;9.088;2022-12-20T02:00:04;4.10;99.90
9167;DHT22;4618;48.818;9.088;2022-12-20T02:02:31;4.10;99.90
9167;DHT22;4618;48.818;9.088;2022-12-20T02:04:56;4.20;99.90
9167;DHT22;4618;48.818;9.088;2022-12-20T02:07:26;4.20;99.90
9167;DHT22;4618;48.818;9.088;2022-12-20T02:09:54;4.20;99.90
9167;DHT22;4618;48.818;9.088;2022-12-20T02:12:26;4.20;99.90
9167;DHT22;4618;48.818;9.088;2022-12-20T02:15:36;4.10;99.90
9167;DHT22;4618;48.818;9.088;2022-12-20T02:18:28;4.10;99.90
9167;DHT22;4618;48.818;9.088;2022-12-20T02:21:13;4.10;99.90
9167;DHT22;4618;48.818;9.088;2022-12-20T02:29:32;4.10;99.90
9167;DHT22;4618;48.818;9.088;2022-12-20T02:34:30;4.00;99.90
9167;DHT22;4618;48.818;9.088;2022-12-20T02:36:56;4.00;99.90
9167;DHT22;4618;48.818;9.088;2022-12-20T02:39:22;4.10;99.90
9167;DHT22;4618;48.818;9.088;2022-12-20T02:41:58;4.10;99.90
9167;DHT22;4618;48.818;9.088;2022-12-20T02:44:26;4.10;99.90
9167;DHT22;4618;48.818;9.088;2022-12-20T02:47:17;4.20;99.90
9167;DHT22;4618;48.818;9.088;2022-12-20T02:49:45;4.30;99.90
9167;DHT22;4618;48.818;9.088;2022-12-20T02:52:12;4.40;99.90
9167;DHT22;4618;48.818;9.088;2022-12-20T02:54:38;4.70;99.90
9167;DHT22;4618;48.818;9.088;2022-12-20T02:57:06;4.70;1.00
9167;DHT22;4618;48.818;9.088;2022-12-20T02:59:42;4.70;1.00
9167;DHT22;4618;48.818;9.088;2022-12-20T03:02:10;4.60;1.00
9167;DHT22;4618;48.818;9.088;2022-12-20T03:04:38;4.60;1.00
9167;DHT22;4618;48.818;9.088;2022-12-20T03:07:10;4.50;1.00
9167;DHT22;4618;48.818;9.088;2022-12-20T03:09:39;4.50;1.00
9167;DHT22;4618;48.818;9.088;2022-12-20T03:12:06;4.60;1.00
9167;DHT22;4618;48.818;9.088;2022-12-20T03:14:32;4.70;1.00
9167;DHT22;4618;48.818;9.088;2022-12-20T03:16:57;4.50;1.00
9167;DHT22;4618;48.818;9.088;2022-12-20T03:19:23;4.40;1.00
9167;DHT22;4618;48.818;9.088;2022-12-20T03:21:50;4.50;1.00
9167;DHT22;4618;48.818;9.088;2022-12-20T03:24:15;4.50;1.00
9167;DHT22;4618;48.818;9.088;2022-12-20T03:26:41;4.50;1.00
9167;DHT22;4618;48.818;9.088;2022-12-20T03:29:08;4.40;1.00
9167;DHT22;4618;48.818;9.088;2022-12-20T03:31:34;4.30;99.90
9167;DHT22;4618;48.818;9.088;2022-12-20T03:34:01;4.30;99.90
9167;DHT22;4618;48.818;9.088;2022-12-20T03:36:26;4.40;99.90
9167;DHT22;4618;48.818;9.088;2022-12-20T03:38:52;4.40;99.90
9167;DHT22;4618;48.818;9.088;2022-12-20T03:41:19;4.40;99.90
9167;DHT22;4618;48.818;9.088;2022-12-20T03:43:47;4.50;23.00
9167;DHT22;4618;48.818;9.088;2022-12-20T03:46:39;4.90;99.90
9167;DHT22;4618;48.818;9.088;2022-12-20T03:49:04;6.00;1.00
9167;DHT22;4618;48.818;9.088;2022-12-20T03:51:30;7.70;1.00
9167;DHT22;4618;48.818;9.088;2022-12-20T03:53:56;8.70;1.00
9167;DHT22;4618;48.818;9.088;2022-12-20T03:56:22;8.10;1.00
9167;DHT22;4618;48.818;9.088;2022-12-20T03:58:47;7.10;99.90
9167;DHT22;4618;48.818;9.088;2022-12-20T04:01:23;6.30;99.10
9167;DHT22;4618;48.818;9.088;2022-12-20T04:03:49;5.70;1.00
9167;DHT22;4618;48.818;9.088;2022-12-20T04:06:16;5.30;99.90
9167;DHT22;4618;48.818;9.088;2022-12-20T04:08:42;5.30;99.90
9167;DHT22;4618;48.818;9.088;2022-12-20T04:11:07;6.50;1.00
9167;DHT22;4618;48.818;9.088;2022-12-20T04:13:50;6.60;99.90
9167;DHT22;4618;48.818;9.088;2022-12-20T04:16:24;6.30;1.00
9167;DHT22;4618;48.818;9.088;2022-12-20T04:18:50;5.90;1.00
9167;DHT22;4618;48.818;9.088;2022-12-20T04:21:28;5.50;99.90
9167;DHT22;4618;48.818;9.088;2022-12-20T04:23:54;5.10;1.00
9167;DHT22;4618;48.818;9.088;2022-12-20T04:26:20;5.00;1.00
9167;DHT22;4618;48.818;9.088;2022-12-20T04:28:46;5.00;99.90
9167;DHT22;4618;48.818;9.088;2022-12-20T04:31:11;4.90;99.90
9167;DHT22;4618;48.818;9.088;2022-12-20T04:33:37;5.00;99.90
9167;DHT22;4618;48.818;9.088;2022-12-20T04:36:04;5.00;99.90
9167;DHT22;4618;48.818;9.088;2022-12-20T04:38:29;4.90;99.90
9167;DHT22;4618;48.818;9.088;2022-12-20T04:40:55;4.90;99.90
9167;DHT22;4618;48.818;9.088;2022-12-20T04:43:22;4.90;99.90
9167;DHT22;4618;48.818;9.088;2022-12-20T04:45:50;4.80;1.00
9167;DHT22;4618;48.818;9.088;2022-12-20T04:48:17;4.80;1.00
9167;DHT22;4618;48.818;9.088;2022-12-20T04:50:47;4.80;1.00
9167;DHT22;4618;48.818;9.088;2022-12-20T04:53:13;4.80;1.00
9167;DHT22;4618;48.818;9.088;2022-12-20T04:55:57;4.70;1.00
9167;DHT22;4618;48.818;9.088;2022-12-20T04:58:23;4.60;1.00
9167;DHT22;4618;48.818;9.088;2022-12-20T05:00:49;4.80;1.00
9167;DHT22;4618;48.818;9.088;2022-12-20T05:03:17;4.90;99.90
9167;DHT22;4618;48.818;9.088;2022-12-20T05:05:43;4.90;99.90
9167;DHT22;4618;48.818;9.088;2022-12-20T05:08:08;5.00;99.90
9167;DHT22;4618;48.818;9.088;2022-12-20T05:10:34;5.10;99.90
9167;DHT22;4618;48.818;9.088;2022-12-20T05:12:59;5.10;99.90
9167;DHT22;4618;48.818;9.088;2022-12-20T05:15:25;5.00;99.90
9167;DHT22;4618;48.818;9.088;2022-12-20T05:17:51;5.00;99.90
9167;DHT22;4618;48.818;9.088;2022-12-20T05:20:16;5.00;99.90
9167;DHT22;4618;48.818;9.088;2022-12-20T05:22:42;5.10;99.90
9167;DHT22;4618;48.818;9.088;2022-12-20T05:25:26;5.20;99.90
9167;DHT22;4618;48.818;9.088;2022-12-20T05:28:10;5.30;99.90
9167;DHT22;4618;48.818;9.088;2022-12-20T05:30:36;5.30;99.90
9167;DHT22;4618;48.818;9.088;2022-12-20T05:33:02;5.30;99.90
9167;DHT22;4618;48.818;9.088;2022-12-20T05:35:27;5.10;99.90
9167;DHT22;4618;48.818;9.088;2022-12-20T05:37:53;5.00;1.00
9167;DHT22;4618;48.818;9.088;2022-12-20T05:40:19;5.10;1.00
9167;DHT22;4618;48.818;9.088;2022-12-20T05:42:44;5.10;99.90
9167;DHT22;4618;48.818;9.088;2022-12-20T05:45:10;5.20;1.00
9167;DHT22;4618;48.818;9.088;2022-12-20T05:47:35;5.30;99.90
9167;DHT22;4618;48.818;9.088;2022-12-20T05:50:02;5.40;99.90
9167;DHT22;4618;48.818;9.088;2022-12-20T05:52:29;5.90;1.00
9167;DHT22;4618;48.818;9.088;2022-12-20T05:54:54;6.10;1.00
9167;DHT22;4618;48.818;9.088;2022-12-20T05:57:20;6.20;4.70
9167;DHT22;4618;48.818;9.088;2022-12-20T05:59:46;6.20;1.00
9167;DHT22;4618;48.818;9.088;2022-12-20T06:02:12;6.10;1.00
9167;DHT22;4618;48.818;9.088;2022-12-20T06:04:38;5.70;99.90
9167;DHT22;4618;48.818;9.088;2022-12-20T06:07:04;5.50;1.00
9167;DHT22;4618;48.818;9.088;2022-12-20T06:09:30;5.50;70.70
9167;DHT22;4618;48.818;9.088;2022-12-20T06:11:56;5.50;46.80
9167;DHT22;4618;48.818;9.088;2022-12-20T06:14:22;5.40;99.90
9167;DHT22;4618;48.818;9.088;2022-12-20T06:16:48;5.30;99.90
9167;DHT22;4618;48.818;9.088;2022-12-20T06:19:13;5.30;99.90
9167;DHT22;4618;48.818;9.088;2022-12-20T06:21:39;5.20;95.60
9167;DHT22;4618;48.818;9.088;2022-12-20T06:24:04;5.20;99.90
9167;DHT22;4618;48.818;9.088;2022-12-20T06:26:30;5.20;99.90
9167;DHT22;4618;48.818;9.088;2022-12-20T06:29:04;5.10;99.90
9167;DHT22;4618;48.818;9.088;2022-12-20T06:31:32;5.10;99.90
9167;DHT22;4618;48.818;9.088;2022-12-20T06:33:58;5.10;1.00
9167;DHT22;4618;48.818;9.088;2022-12-20T06:36:24;5.20;1.00
9167;DHT22;4618;48.818;9.088;2022-12-20T06:38:50;5.20;1.00
9167;DHT22;4618;48.818;9.088;2022-12-20T06:41:16;5.30;99.90
9167;DHT22;4618;48.818;9.088;2022-12-20T06:43:41;5.10;1.00
9167;DHT22;4618;48.818;9.088;2022-12-20T06:46:07;5.10;1.00
9167;DHT22;4618;48.818;9.088;2022-12-20T06:48:32;5.20;1.00
9167;DHT22;4618;48.818;9.088;2022-12-20T06:50:58;5.20;1.00
9167;DHT22;4618;48.818;9.088;2022-12-20T06:53:23;5.20;1.00
9167;DHT22;4618;48.818;9.088;2022-12-20T06:55:50;5.20;99.90
9167;DHT22;4618;48.818;9.088;2022-12-20T06:58:16;5.10;99.90
9167;DHT22;4618;48.818;9.088;2022-12-20T07:00:42;5.10;99.90
9167;DHT22;4618;48.818;9.088;2022-12-20T07:03:08;5.10;1.00
9167;DHT22;4618;48.818;9.088;2022-12-20T07:05:33;5.00;1.00
9167;DHT22;4618;48.818;9.088;2022-12-20T07:07:59;5.10;1.00
9167;DHT22;4618;48.818;9.088;2022-12-20T07:10:24;5.00;99.90
9167;DHT22;4618;48.818;9.088;2022-12-20T07:12:51;5.00;1.00
9167;DHT22;4618;48.818;9.088;2022-12-20T07:15:17;5.00;1.00
9167;DHT22;4618;48.818;9.088;2022-12-20T07:17:43;5.20;99.90
9167;DHT22;4618;48.818;9.088;2022-12-20T07:20:09;5.20;99.90
9167;DHT22;4618;48.818;9.088;2022-12-20T07:22:34;5.20;99.90
9167;DHT22;4618;48.818;9.088;2022-12-20T07:25:00;5.10;99.90
9167;DHT22;4618;48.818;9.088;2022-12-20T07:27:26;5.30;99.90
9167;DHT22;4618;48.818;9.088;2022-12-20T07:29:51;5.30;99.90
9167;DHT22;4618;48.818;9.088;2022-12-20T07:32:17;5.20;99.90
9167;DHT22;4618;48.818;9.088;2022-12-20T07:34:42;5.20;99.90
9167;DHT22;4618;48.818;9.088;2022-12-20T07:37:08;5.20;99.90
9167;DHT22;4618;48.818;9.088;2022-12-20T07:39:33;5.30;99.90
9167;DHT22;4618;48.818;9.088;2022-12-20T07:41:59;5.20;99.90
9167;DHT22;4618;48.818;9.088;2022-12-20T07:44:25;5.20;99.90
9167;DHT22;4618;48.818;9.088;2022-12-20T07:46:50;5.20;99.90
9167;DHT22;4618;48.818;9.088;2022-12-20T07:49:16;5.10;99.90
9167;DHT22;4618;48.818;9.088;2022-12-20T07:51:47;5.30;99.90
9167;DHT22;4618;48.818;9.088;2022-12-20T07:54:23;5.30;99.90
9167;DHT22;4618;48.818;9.088;2022-12-20T07:56:56;5.50;99.90
9167;DHT22;4618;48.818;9.088;2022-12-20T07:59:27;5.60;99.90
9167;DHT22;4618;48.818;9.088;2022-12-20T08:01:54;5.70;1.00
9167;DHT22;4618;48.818;9.088;2022-12-20T08:04:24;5.80;1.00
9167;DHT22;4618;48.818;9.088;2022-12-20T08:06:52;6.00;1.00
9167;DHT22;4618;48.818;9.088;2022-12-20T08:09:20;6.10;99.90
9167;DHT22;4618;48.818;9.088;2022-12-20T08:11:48;6.30;99.90
9167;DHT22;4618;48.818;9.088;2022-12-20T08:14:15;6.40;99.90
9167;DHT22;4618;48.818;9.088;2022-12-20T08:16:41;6.30;99.90
9167;DHT22;4618;48.818;9.088;2022-12-20T08:19:08;6.20;99.90
9167;DHT22;4618;48.818;9.088;2022-12-20T08:21:34;6.10;99.90
9167;DHT22;4618;48.818;9.088;2022-12-20T08:24:00;6.00;99.90
9167;DHT22;4618;48.818;9.088;2022-12-20T08:26:25;5.80;1.00
9167;DHT22;4618;48.818;9.088;2022-12-20T08:28:52;5.90;1.00
9167;DHT22;4618;48.818;9.088;2022-12-20T08:31:18;5.90;1.00
9167;DHT22;4618;48.818;9.088;2022-12-20T08:33:44;5.80;1.00
9167;DHT22;4618;48.818;9.088;2022-12-20T08:36:10;6.00;1.00
9167;DHT22;4618;48.818;9.088;2022-12-20T08:38:36;6.10;1.00
9167;DHT22;4618;48.818;9.088;2022-12-20T08:41:08;6.60;99.90
9167;DHT22;4618;48.818;9.088;2022-12-20T08:43:35;6.60;1.00
9167;DHT22;4618;48.818;9.088;2022-12-20T08:46:01;6.60;1.00
9167;DHT22;4618;48.818;9.088;2022-12-20T08:48:27;7.30;1.00
9167;DHT22;4618;48.818;9.088;2022-12-20T08:50:54;7.90;1.00
9167;DHT22;4618;48.818;9.088;2022-12-20T08:53:20;7.90;1.00
9167;DHT22;4618;48.818;9.088;2022-12-20T08:55:46;8.00;1.00
9167;DHT22;4618;48.818;9.088;2022-12-20T08:58:11;8.30;99.90
9167;DHT22;4618;48.818;9.088;2022-12-20T09:00:37;8.20;99.90
9167;DHT22;4618;48.818;9.088;2022-12-20T09:03:02;8.10;1.00
9167;DHT22;4618;48.818;9.088;2022-12-20T09:05:28;8.00;1.00
9167;DHT22;4618;48.818;9.088;2022-12-20T09:07:53;7.90;1.00
9167;DHT22;4618;48.818;9.088;2022-12-20T09:10:19;8.10;1.00
9167;DHT22;4618;48.818;9.088;2022-12-20T09:12:45;8.20;1.00
9167;DHT22;4618;48.818;9.088;2022-12-20T09:15:10;8.00;1.00
9167;DHT22;4618;48.818;9.088;2022-12-20T09:17:36;8.40;89.60
9167;DHT22;4618;48.818;9.088;2022-12-20T09:20:02;8.80;77.00
9167;DHT22;4618;48.818;9.088;2022-12-20T09:22:28;8.90;91.80
9167;DHT22;4618;48.818;9.088;2022-12-20T09:24:54;8.90;27.30
9167;DHT22;4618;48.818;9.088;2022-12-20T09:27:21;8.90;1.00
9167;DHT22;4618;48.818;9.088;2022-12-20T09:29:47;8.90;15.70
9167;DHT22;4618;48.818;9.088;2022-12-20T09:32:12;8.80;97.10
9167;DHT22;4618;48.818;9.088;2022-12-20T09:34:38;8.90;1.00
9167;DHT22;4618;48.818;9.088;2022-12-20T09:37:04;8.60;63.60
9167;DHT22;4618;48.818;9.088;2022-12-20T09:39:29;9.40;99.90
9167;DHT22;4618;48.818;9.088;2022-12-20T09:41:56;10.10;1.00
9167;DHT22;4618;48.818;9.088;2022-12-20T09:44:33;10.30;1.00
9167;DHT22;4618;48.818;9.088;2022-12-20T09:47:06;10.50;1.00
9167;DHT22;4618;48.818;9.088;2022-12-20T09:49:35;10.40;99.90
9167;DHT22;4618;48.818;9.088;2022-12-20T09:55:07;10.50;99.90
9167;DHT22;4618;48.818;9.088;2022-12-20T10:00:19;10.70;99.90
9167;DHT22;4618;48.818;9.088;2022-12-20T10:02:46;10.70;99.90
9167;DHT22;4618;48.818;9.088;2022-12-20T10:05:15;10.60;99.90
9167;DHT22;4618;48.818;9.088;2022-12-20T10:10:55;10.30;99.90
9167;DHT22;4618;48.818;9.088;2022-12-20T10:16:49;10.40;99.90
9167;DHT22;4618;48.818;9.088;2022-12-20T10:19:30;10.50;99.90
9167;DHT22;4618;48.818;9.088;2022-12-20T10:24:55;10.60;99.90
9167;DHT22;4618;48.818;9.088;2022-12-20T10:27:23;10.50;99.90
9167;DHT22;4618;48.818;9.088;2022-12-20T10:29:49;10.20;99.90
9167;DHT22;4618;48.818;9.088;2022-12-20T10:32:19;10.00;1.00
9167;DHT22;4618;48.818;9.088;2022-12-20T10:35:14;9.70;1.00
9167;DHT22;4618;48.818;9.088;2022-12-20T10:40:32;9.70;1.00
9167;DHT22;4618;48.818;9.088;2022-12-20T10:42:59;9.70;1.00
9167;DHT22;4618;48.818;9.088;2022-12-20T10:45:31;9.60;1.00
9167;DHT22;4618;48.818;9.088;2022-12-20T10:48:00;9.50;1.00
9167;DHT22;4618;48.818;9.088;2022-12-20T10:50:26;9.50;1.00
9167;DHT22;4618;48.818;9.088;2022-12-20T10:55:38;9.60;1.00
9167;DHT22;4618;48.818;9.088;2022-12-20T10:58:11;9.60;1.00
9167;DHT22;4618;48.818;9.088;2022-12-20T11:00:38;9.60;1.00
9167;DHT22;4618;48.818;9.088;2022-12-20T11:03:17;9.70;1.00
9167;DHT22;4618;48.818;9.088;2022-12-20T11:05:57;9.40;1.00
9167;DHT22;4618;48.818;9.088;2022-12-20T11:08:25;9.30;99.90
9167;DHT22;4618;48.818;9.088;2022-12-20T11:11:12;9.20;99.90
9167;DHT22;4618;48.818;9.088;2022-12-20T11:13:39;8.90;99.90
9167;DHT22;4618;48.818;9.088;2022-12-20T11:16:08;9.10;99.90
9167;DHT22;4618;48.818;9.088;2022-12-20T11:21:29;9.30;1.00
9167;DHT22;4618;48.818;9.088;2022-12-20T11:32:30;9.50;99.90
9167;DHT22;4618;48.818;9.088;2022-12-20T11:35:18;9.60;99.90
9167;DHT22;4618;48.818;9.088;2022-12-20T11:40:30;9.50;1.00
9167;DHT22;4618;48.818;9.088;2022-12-20T11:43:26;9.60;99.90
9167;DHT22;4618;48.818;9.088;2022-12-20T11:46:01;9.60;99.90
9167;DHT22;4618;48.818;9.088;2022-12-20T11:49:02;9.40;1.00
9167;DHT22;4618;48.818;9.088;2022-12-20T11:51:45;9.20;1.00
9167;DHT22;4618;48.818;9.088;2022-12-20T11:54:20;9.40;99.90
9167;DHT22;4618;48.818;9.088;2022-12-20T11:56:50;10.00;99.90
9167;DHT22;4618;48.818;9.088;2022-12-20T11:59:30;9.80;99.90
9167;DHT22;4618;48.818;9.088;2022-12-20T12:02:08;9.80;99.90
9167;DHT22;4618;48.818;9.088;2022-12-20T12:04:39;9.70;99.90
9167;DHT22;4618;48.818;9.088;2022-12-20T12:07:16;9.90;5.30
9167;DHT22;4618;48.818;9.088;2022-12-20T12:12:47;9.90;1.00
9167;DHT22;4618;48.818;9.088;2022-12-20T12:18:03;9.60;99.90
9167;DHT22;4618;48.818;9.088;2022-12-20T12:24:13;9.80;1.00
9167;DHT22;4618;48.818;9.088;2022-12-20T12:26:28;10.00;1.00
9167;DHT22;4618;48.818;9.088;2022-12-20T12:28:59;10.20;1.00
9167;DHT22;4618;48.818;9.088;2022-12-20T12:31:48;10.40;1.00
9167;DHT22;4618;48.818;9.088;2022-12-20T12:43:12;10.30;1.00
9167;DHT22;4618;48.818;9.088;2022-12-20T12:45:51;10.30;1.00
9167;DHT22;4618;48.818;9.088;2022-12-20T12:50:51;10.40;1.00
9167;DHT22;4618;48.818;9.088;2022-12-20T12:53:31;10.40;1.00
9167;DHT22;4618;48.818;9.088;2022-12-20T12:55:58;10.50;1.00
9167;DHT22;4618;48.818;9.088;2022-12-20T12:58:43;10.50;1.00
9167;DHT22;4618;48.818;9.088;2022-12-20T13:04:29;10.60;1.00
9167;DHT22;4618;48.818;9.088;2022-12-20T13:06:59;10.60;1.00
9167;DHT22;4618;48.818;9.088;2022-12-20T13:11:51;10.20;20.70
9167;DHT22;4618;48.818;9.088;2022-12-20T13:19:52;9.80;99.90
9167;DHT22;4618;48.818;9.088;2022-12-20T13:22:24;9.70;99.90
9167;DHT22;4618;48.818;9.088;2022-12-20T13:25:00;9.70;99.90
9167;DHT22;4618;48.818;9.088;2022-12-20T13:27:35;9.70;99.90
9167;DHT22;4618;48.818;9.088;2022-12-20T13:37:54;11.30;99.90
9167;DHT22;4618;48.818;9.088;2022-12-20T13:43:07;11.30;99.90
9167;DHT22;4618;48.818;9.088;2022-12-20T13:45:37;11.70;28.20
9167;DHT22;4618;48.818;9.088;2022-12-20T13:48:05;11.90;1.00
9167;DHT22;4618;48.818;9.088;2022-12-20T13:50:35;11.70;21.50
9167;DHT22;4618;48.818;9.088;2022-12-20T13:53:04;11.40;75.50
9167;DHT22;4618;48.818;9.088;2022-12-20T13:55:35;11.20;99.90
9167;DHT22;4618;48.818;9.088;2022-12-20T13:58:09;11.20;99.90
9167;DHT22;4618;48.818;9.088;2022-12-20T14:00:35;10.70;99.90
9167;DHT22;4618;48.818;9.088;2022-12-20T14:03:01;10.40;1.00
9167;DHT22;4618;48.818;9.088;2022-12-20T14:05:36;10.00;1.00
9167;DHT22;4618;48.818;9.088;2022-12-20T14:08:13;10.20;1.00
9167;DHT22;4618;48.818;9.088;2022-12-20T14:10:40;10.20;1.00
9167;DHT22;4618;48.818;9.088;2022-12-20T14:15:44;9.80;87.40
9167;DHT22;4618;48.818;9.088;2022-12-20T14:18:18;9.80;65.40
9167;DHT22;4618;48.818;9.088;2022-12-20T14:20:49;9.60;99.90
9167;DHT22;4618;48.818;9.088;2022-12-20T14:26:02;9.50;99.90
9167;DHT22;4618;48.818;9.088;2022-12-20T14:28:38;9.60;99.90
9167;DHT22;4618;48.818;9.088;2022-12-20T14:31:07;9.60;99.90
9167;DHT22;4618;48.818;9.088;2022-12-20T14:33:46;9.50;99.90
9167;DHT22;4618;48.818;9.088;2022-12-20T14:36:17;9.40;99.90
9167;DHT22;4618;48.818;9.088;2022-12-20T14:38:50;9.40;99.90
9167;DHT22;4618;48.818;9.088;2022-12-20T14:41:37;9.20;99.90
9167;DHT22;4618;48.818;9.088;2022-12-20T14:44:15;9.10;99.90
9167;DHT22;4618;48.818;9.088;2022-12-20T14:46:55;9.10;99.90
9167;DHT22;4618;48.818;9.088;2022-12-20T14:52:16;9.00;1.00
9167;DHT22;4618;48.818;9.088;2022-12-20T14:54:47;9.00;1.00
9167;DHT22;4618;48.818;9.088;2022-12-20T15:00:13;8.90;1.00
9167;DHT22;4618;48.818;9.088;2022-12-20T15:02:40;8.90;1.00
9167;DHT22;4618;48.818;9.088;2022-12-20T15:05:08;8.80;1.00
9167;DHT22;4618;48.818;9.088;2022-12-20T15:07:33;8.70;1.00
9167;DHT22;4618;48.818;9.088;2022-12-20T15:09:59;8.50;13.80
9167;DHT22;4618;48.818;9.088;2022-12-20T15:12:25;8.40;99.90
9167;DHT22;4618;48.818;9.088;2022-12-20T15:14:50;8.40;99.90
9167;DHT22;4618;48.818;9.088;2022-12-20T15:17:16;8.30;99.90
9167;DHT22;4618;48.818;9.088;2022-12-20T15:19:42;8.20;99.90
9167;DHT22;4618;48.818;9.088;2022-12-20T15:22:15;8.20;99.90
9167;DHT22;4618;48.818;9.088;2022-12-20T15:24:41;8.20;99.90
9167;DHT22;4618;48.818;9.088;2022-12-20T15:27:12;8.20;99.90
9167;DHT22;4618;48.818;9.088;2022-12-20T15:29:38;8.80;1.00
9167;DHT22;4618;48.818;9.088;2022-12-20T15:32:06;9.30;38.90
9167;DHT22;4618;48.818;9.088;2022-12-20T15:34:37;9.80;1.00
9167;DHT22;4618;48.818;9.088;2022-12-20T15:37:10;9.60;1.00
9167;DHT22;4618;48.818;9.088;2022-12-20T15:39:39;9.40;44.20
9167;DHT22;4618;48.818;9.088;2022-12-20T15:42:05;9.20;99.90
9167;DHT22;4618;48.818;9.088;2022-12-20T15:44:32;8.90;99.90
9167;DHT22;4618;48.818;9.088;2022-12-20T15:46:58;8.60;1.00
9167;DHT22;4618;48.818;9.088;2022-12-20T15:49:29;8.50;1.00
9167;DHT22;4618;48.818;9.088;2022-12-20T15:51:55;8.50;1.00
9167;DHT22;4618;48.818;9.088;2022-12-20T15:57:01;8.30;40.00
9167;DHT22;4618;48.818;9.088;2022-12-20T15:59:28;8.20;99.90
9167;DHT22;4618;48.818;9.088;2022-12-20T16:01:53;8.10;99.90
9167;DHT22;4618;48.818;9.088;2022-12-20T16:04:20;8.10;99.90
9167;DHT22;4618;48.818;9.088;2022-12-20T16:06:48;8.20;99.90
9167;DHT22;4618;48.818;9.088;2022-12-20T16:09:14;8.20;99.90
9167;DHT22;4618;48.818;9.088;2022-12-20T16:11:40;8.10;99.90
9167;DHT22;4618;48.818;9.088;2022-12-20T16:14:06;8.10;99.90
9167;DHT22;4618;48.818;9.088;2022-12-20T16:16:35;8.10;99.90
9167;DHT22;4618;48.818;9.088;2022-12-20T16:19:02;8.00;99.90
9167;DHT22;4618;48.818;9.088;2022-12-20T16:21:36;8.10;99.90
9167;DHT22;4618;48.818;9.088;2022-12-20T16:24:08;8.10;99.90
9167;DHT22;4618;48.818;9.088;2022-12-20T16:26:35;8.20;99.90
9167;DHT22;4618;48.818;9.088;2022-12-20T16:29:00;8.30;99.90
9167;DHT22;4618;48.818;9.088;2022-12-20T16:31:31;8.20;99.90
9167;DHT22;4618;48.818;9.088;2022-12-20T16:33:59;8.20;99.90
9167;DHT22;4618;48.818;9.088;2022-12-20T16:36:25;8.20;99.90
9167;DHT22;4618;48.818;9.088;2022-12-20T16:38:51;8.10;99.90
9167;DHT22;4618;48.818;9.088;2022-12-20T16:41:28;8.10;99.90
9167;DHT22;4618;48.818;9.088;2022-12-20T16:43:56;8.00;99.90
9167;DHT22;4618;48.818;9.088;2022-12-20T16:46:24;8.00;99.90
9167;DHT22;4618;48.818;9.088;2022-12-20T16:48:57;7.90;1.00
9167;DHT22;4618;48.818;9.088;2022-12-20T16:51:30;7.90;99.90
9167;DHT22;4618;48.818;9.088;2022-12-20T16:56:22;7.90;1.00
9167;DHT22;4618;48.818;9.088;2022-12-20T16:58:48;7.90;1.00
9167;DHT22;4618;48.818;9.088;2022-12-20T17:01:19;7.90;1.00
9167;DHT22;4618;48.818;9.088;2022-12-20T17:03:48;8.00;99.90
9167;DHT22;4618;48.818;9.088;2022-12-20T17:06:14;8.00;99.90
9167;DHT22;4618;48.818;9.088;2022-12-20T17:08:41;8.00;99.90
9167;DHT22;4618;48.818;9.088;2022-12-20T17:11:15;8.00;99.90
9167;DHT22;4618;48.818;9.088;2022-12-20T17:13:42;8.00;99.90
9167;DHT22;4618;48.818;9.088;2022-12-20T17:16:09;7.90;1.00
9167;DHT22;4618;48.818;9.088;2022-12-20T17:18:35;7.90;1.00
9167;DHT22;4618;48.818;9.088;2022-12-20T17:21:15;7.90;1.00
9167;DHT22;4618;48.818;9.088;2022-12-20T17:23:42;7.90;1.00
9167;DHT22;4618;48.818;9.088;2022-12-20T17:26:12;7.80;1.00
9167;DHT22;4618;48.818;9.088;2022-12-20T17:28:39;7.80;1.00
9167;DHT22;4618;48.818;9.088;2022-12-20T17:31:34;8.00;99.90
9167;DHT22;4618;48.818;9.088;2022-12-20T17:34:04;8.00;99.90
9167;DHT22;4618;48.818;9.088;2022-12-20T17:36:29;7.90;99.90
9167;DHT22;4618;48.818;9.088;2022-12-20T17:38:55;7.90;99.90
9167;DHT22;4618;48.818;9.088;2022-12-20T17:41:27;8.10;99.90
9167;DHT22;4618;48.818;9.088;2022-12-20T17:43:54;8.40;1.00
9167;DHT22;4618;48.818;9.088;2022-12-20T17:46:19;8.70;1.00
9167;DHT22;4618;48.818;9.088;2022-12-20T17:48:46;9.10;99.90
9167;DHT22;4618;48.818;9.088;2022-12-20T17:51:20;9.70;1.00
9167;DHT22;4618;48.818;9.088;2022-12-20T17:53:48;10.10;1.00
9167;DHT22;4618;48.818;9.088;2022-12-20T17:56:36;10.40;99.90
9167;DHT22;4618;48.818;9.088;2022-12-20T17:59:01;10.70;99.90
9167;DHT22;4618;48.818;9.088;2022-12-20T18:01:34;10.60;99.90
9167;DHT22;4618;48.818;9.088;2022-12-20T18:04:04;10.50;99.90
9167;DHT22;4618;48.818;9.088;2022-12-20T18:06:32;10.50;99.90
9167;DHT22;4618;48.818;9.088;2022-12-20T18:08:58;10.30;99.90
9167;DHT22;4618;48.818;9.088;2022-12-20T18:11:26;10.40;99.90
9167;DHT22;4618;48.818;9.088;2022-12-20T18:13:55;10.10;99.90
9167;DHT22;4618;48.818;9.088;2022-12-20T18:16:23;10.20;99.90
9167;DHT22;4618;48.818;9.088;2022-12-20T18:18:49;10.40;99.90